createdAt,value
2016-05-15T00:00:50.608Z,996.83
2016-05-15T00:01:50.643Z,996.79
2016-05-15T00:02:50.676Z,996.79
2016-05-15T00:03:50.711Z,996.77
2016-05-15T00:04:50.745Z,996.75
2016-05-15T00:05:50.779Z,996.79
2016-05-15T00:06:50.829Z,996.82
2016-05-15T00:07:50.862Z,996.81
2016-05-15T00:08:50.895Z,996.76
2016-05-15T00:09:50.929Z,996.79
2016-05-15T00:10:50.965Z,996.77
2016-05-15T00:11:50.998Z,996.77
2016-05-15T00:12:51.032Z,996.86
2016-05-15T00:13:51.065Z,996.81
2016-05-15T00:14:51.100Z,996.82
2016-05-15T00:15:51.149Z,996.78
2016-05-15T00:16:51.183Z,996.82
2016-05-15T00:17:51.217Z,996.75
2016-05-15T00:18:51.251Z,996.8
2016-05-15T00:19:51.284Z,996.88
2016-05-15T00:20:51.319Z,996.83
2016-05-15T00:21:51.353Z,996.77
2016-05-15T00:22:51.386Z,996.78
2016-05-15T00:23:51.437Z,996.74
2016-05-15T00:24:51.470Z,997
2016-05-15T00:25:51.505Z,996.69
2016-05-15T00:26:51.538Z,996.81
2016-05-15T00:27:51.572Z,996.76
2016-05-15T00:28:51.605Z,996.8
2016-05-15T00:29:51.655Z,996.83
2016-05-15T00:30:51.674Z,996.81
2016-05-15T00:31:51.708Z,996.87
2016-05-15T00:32:51.758Z,996.83
2016-05-15T00:33:52.166Z,996.85
2016-05-15T00:34:51.825Z,996.81
2016-05-15T00:35:51.859Z,996.84
2016-05-15T00:36:51.909Z,996.83
2016-05-15T00:37:51.927Z,996.84
2016-05-15T00:38:51.976Z,996.8
2016-05-15T00:39:52.010Z,996.8
2016-05-15T00:40:52.045Z,996.84
2016-05-15T00:41:52.078Z,996.87
2016-05-15T00:42:52.112Z,996.87
2016-05-15T00:43:52.146Z,996.95
2016-05-15T00:44:52.181Z,996.88
2016-05-15T00:45:52.214Z,996.85
2016-05-15T00:46:52.248Z,996.84
2016-05-15T00:47:52.282Z,996.92
2016-05-15T00:48:52.316Z,996.87
2016-05-15T00:49:52.366Z,996.89
2016-05-15T00:50:52.400Z,996.92
2016-05-15T00:51:52.465Z,996.88
2016-05-15T00:52:52.483Z,996.89
2016-05-15T00:53:52.501Z,996.91
2016-05-15T00:54:52.535Z,996.89
2016-05-15T00:55:52.585Z,996.88
2016-05-15T00:56:52.619Z,996.94
2016-05-15T00:57:52.637Z,996.88
2016-05-15T00:58:52.686Z,996.91
2016-05-15T00:59:52.721Z,996.95
2016-05-15T01:00:52.770Z,996.86
2016-05-15T01:01:52.788Z,996.88
2016-05-15T01:02:52.822Z,996.9
2016-05-15T01:03:52.857Z,996.89
2016-05-15T01:04:52.906Z,996.88
2016-05-15T01:05:52.940Z,996.85
2016-05-15T01:06:52.974Z,996.84
2016-05-15T01:07:53.008Z,996.89
2016-05-15T01:08:53.041Z,996.91
2016-05-15T01:09:53.076Z,996.93
2016-05-15T01:10:53.110Z,996.92
2016-05-15T01:11:53.191Z,996.91
2016-05-15T01:12:53.193Z,996.9
2016-05-15T01:13:53.227Z,996.91
2016-05-15T01:14:53.261Z,996.89
2016-05-15T01:15:53.295Z,996.92
2016-05-15T01:16:53.329Z,996.99
2016-05-15T01:17:53.362Z,996.88
2016-05-15T01:18:53.397Z,996.89
2016-05-15T01:19:53.431Z,996.95
2016-05-15T01:20:53.480Z,997.01
2016-05-15T01:21:53.515Z,996.91
2016-05-15T01:22:53.564Z,996.93
2016-05-15T01:23:53.582Z,996.9
2016-05-15T01:24:53.616Z,997.03
2016-05-15T01:25:53.650Z,996.94
2016-05-15T01:26:53.700Z,996.95
2016-05-15T01:27:53.717Z,996.98
2016-05-15T01:28:53.752Z,996.99
2016-05-15T01:29:53.786Z,996.94
2016-05-15T01:30:53.819Z,996.94
2016-05-15T01:31:53.869Z,996.97
2016-05-15T01:32:53.903Z,996.94
2016-05-15T01:33:53.938Z,996.98
2016-05-15T01:34:53.971Z,996.97
2016-05-15T01:35:54.005Z,996.98
2016-05-15T01:36:54.055Z,997.02
2016-05-15T01:37:54.088Z,996.99
2016-05-15T01:38:54.107Z,997.03
2016-05-15T01:39:54.157Z,997.01
2016-05-15T01:40:54.174Z,996.99
2016-05-15T01:41:54.209Z,997.08
2016-05-15T01:42:54.257Z,997.12
2016-05-15T01:43:54.292Z,997.04
2016-05-15T01:44:54.326Z,997.08
2016-05-15T01:45:54.359Z,997.1
2016-05-15T01:46:54.393Z,997.12
2016-05-15T01:47:54.428Z,997.04
2016-05-15T01:48:54.462Z,997.03
2016-05-15T01:49:54.496Z,997.04
2016-05-15T01:50:54.545Z,997.02
2016-05-15T01:51:54.579Z,997.12
2016-05-15T01:52:54.628Z,997.13
2016-05-15T01:53:54.648Z,997.07
2016-05-15T01:54:54.681Z,997.12
2016-05-15T01:55:54.715Z,997.09
2016-05-15T01:56:54.749Z,997.11
2016-05-15T01:57:54.783Z,997.07
2016-05-15T01:58:54.817Z,997.01
2016-05-15T01:59:54.850Z,997.04
2016-05-15T02:00:54.900Z,997.12
2016-05-15T02:01:54.934Z,997.12
2016-05-15T02:02:54.953Z,997.11
2016-05-15T02:03:55.033Z,997.19
2016-05-15T02:04:55.036Z,997.13
2016-05-15T02:05:55.069Z,997.13
2016-05-15T02:06:55.104Z,997.13
2016-05-15T02:07:55.138Z,997.16
2016-05-15T02:08:55.171Z,997.07
2016-05-15T02:09:55.222Z,997.11
2016-05-15T02:10:55.240Z,997.12
2016-05-15T02:11:55.274Z,997.14
2016-05-15T02:12:55.307Z,997.18
2016-05-15T02:13:55.342Z,997.19
2016-05-15T02:14:55.376Z,997.14
2016-05-15T02:15:55.425Z,997.13
2016-05-15T02:16:55.460Z,997.19
2016-05-15T02:17:55.493Z,997.13
2016-05-15T02:18:55.542Z,997.18
2016-05-15T02:19:55.562Z,997.19
2016-05-15T02:20:55.595Z,997.2
2016-05-15T02:21:55.629Z,997.19
2016-05-15T02:22:55.662Z,997.21
2016-05-15T02:23:55.712Z,997.15
2016-05-15T02:24:55.731Z,997.14
2016-05-15T02:25:55.764Z,997.2
2016-05-15T02:26:55.798Z,997.13
2016-05-15T02:27:55.833Z,997.15
2016-05-15T02:28:55.882Z,997.12
2016-05-15T02:29:55.947Z,997.22
2016-05-15T02:30:55.950Z,997.12
2016-05-15T02:31:55.983Z,997.08
2016-05-15T02:32:56.018Z,997.11
2016-05-15T02:33:56.239Z,997.05
2016-05-15T02:34:56.085Z,997.1
2016-05-15T02:35:56.119Z,997.08
2016-05-15T02:36:56.153Z,997.1
2016-05-15T02:37:56.188Z,997.09
2016-05-15T02:38:56.221Z,997.04
2016-05-15T02:39:56.255Z,997.06
2016-05-15T02:40:56.305Z,997.05
2016-05-15T02:41:56.323Z,997.06
2016-05-15T02:42:56.357Z,997.08
2016-05-15T02:43:56.391Z,997.04
2016-05-15T02:44:56.425Z,997.09
2016-05-15T02:45:56.474Z,997.02
2016-05-15T02:46:56.509Z,997.07
2016-05-15T02:47:56.542Z,997.11
2016-05-15T02:48:56.576Z,997.03
2016-05-15T02:49:56.610Z,997.14
2016-05-15T02:50:56.644Z,997.07
2016-05-15T02:51:56.679Z,997.1
2016-05-15T02:52:56.712Z,997.12
2016-05-15T02:53:56.745Z,997.05
2016-05-15T02:54:56.780Z,997.12
2016-05-15T02:55:56.814Z,997.14
2016-05-15T02:56:56.848Z,997.17
2016-05-15T02:57:56.881Z,997.12
2016-05-15T02:58:56.917Z,997.07
2016-05-15T02:59:56.950Z,997.16
2016-05-15T03:00:56.983Z,997.13
2016-05-15T03:01:57.017Z,997.25
2016-05-15T03:02:57.083Z,997.18
2016-05-15T03:03:57.647Z,997.17
2016-05-15T03:04:57.119Z,997.13
2016-05-15T03:05:57.169Z,997.1
2016-05-15T03:06:57.188Z,997.12
2016-05-15T03:07:57.236Z,997.1
2016-05-15T03:08:57.271Z,997.12
2016-05-15T03:09:57.305Z,997.14
2016-05-15T03:10:57.338Z,997.14
2016-05-15T03:11:57.372Z,997.11
2016-05-15T03:12:57.407Z,997.18
2016-05-15T03:13:57.457Z,997.16
2016-05-15T03:14:57.505Z,997.15
2016-05-15T03:15:57.508Z,997.15
2016-05-15T03:16:57.543Z,997.19
2016-05-15T03:17:57.576Z,997.16
2016-05-15T03:18:58.032Z,997.19
2016-05-15T03:19:57.643Z,997.22
2016-05-15T03:20:57.679Z,997.13
2016-05-15T03:21:57.712Z,997.26
2016-05-15T03:22:57.745Z,997.22
2016-05-15T03:23:57.796Z,997.23
2016-05-15T03:24:57.829Z,997.27
2016-05-15T03:25:57.863Z,997.28
2016-05-15T03:26:57.882Z,997.2
2016-05-15T03:27:57.931Z,997.2
2016-05-15T03:28:57.965Z,997.19
2016-05-15T03:29:57.999Z,997.22
2016-05-15T03:30:58.033Z,997.17
2016-05-15T03:31:58.067Z,997.24
2016-05-15T03:32:58.100Z,997.18
2016-05-15T03:33:58.135Z,997.38
2016-05-15T03:34:58.169Z,997.18
2016-05-15T03:35:58.203Z,997.21
2016-05-15T03:36:58.236Z,997.25
2016-05-15T03:37:58.271Z,997.31
2016-05-15T03:38:58.305Z,997.29
2016-05-15T03:39:58.338Z,997.24
2016-05-15T03:40:58.372Z,997.28
2016-05-15T03:41:58.407Z,997.27
2016-05-15T03:42:58.488Z,997.24
2016-05-15T03:43:58.474Z,997.32
2016-05-15T03:44:58.523Z,997.26
2016-05-15T03:45:58.558Z,997.37
2016-05-15T03:46:58.576Z,997.34
2016-05-15T03:47:58.625Z,997.27
2016-05-15T03:48:58.660Z,997.38
2016-05-15T03:49:58.694Z,997.39
2016-05-15T03:50:58.727Z,997.36
2016-05-15T03:51:58.761Z,997.29
2016-05-15T03:52:58.796Z,997.39
2016-05-15T03:53:58.845Z,997.33
2016-05-15T03:54:58.862Z,997.38
2016-05-15T03:55:58.898Z,997.57
2016-05-15T03:56:58.947Z,997.28
2016-05-15T03:57:58.981Z,997.33
2016-05-15T03:58:59.014Z,997.32
2016-05-15T03:59:59.033Z,997.29
2016-05-15T04:00:59.067Z,997.32
2016-05-15T04:01:59.131Z,997.32
2016-05-15T04:02:59.150Z,997.42
2016-05-15T04:03:59.184Z,997.31
2016-05-15T04:04:59.250Z,997.46
2016-05-15T04:05:59.252Z,997.35
2016-05-15T04:06:59.286Z,997.46
2016-05-15T04:07:59.336Z,997.33
2016-05-15T04:08:59.354Z,997.31
2016-05-15T04:09:59.388Z,997.36
2016-05-15T04:10:59.422Z,997.42
2016-05-15T04:11:59.488Z,997.43
2016-05-15T04:12:59.490Z,997.44
2016-05-15T04:13:59.538Z,997.41
2016-05-15T04:14:59.558Z,997.48
2016-05-15T04:15:59.591Z,997.34
2016-05-15T04:16:59.640Z,997.37
2016-05-15T04:17:59.660Z,997.35
2016-05-15T04:18:59.709Z,997.42
2016-05-15T04:19:59.743Z,997.46
2016-05-15T04:20:59.777Z,997.56
2016-05-15T04:21:59.811Z,997.4
2016-05-15T04:22:59.876Z,997.4
2016-05-15T04:23:59.878Z,997.51
2016-05-15T04:24:59.913Z,997.41
2016-05-15T04:25:59.946Z,997.43
2016-05-15T04:26:59.981Z,997.54
2016-05-15T04:28:00.014Z,997.48
2016-05-15T04:29:00.064Z,997.5
2016-05-15T04:30:00.098Z,997.42
2016-05-15T04:31:00.131Z,997.5
2016-05-15T04:32:00.166Z,997.46
2016-05-15T04:33:00.200Z,997.42
2016-05-15T04:34:00.234Z,997.45
2016-05-15T04:35:00.267Z,997.47
2016-05-15T04:36:00.302Z,997.49
2016-05-15T04:37:00.336Z,997.58
2016-05-15T04:38:00.369Z,997.64
2016-05-15T04:39:00.403Z,997.77
2016-05-15T04:40:00.453Z,997.52
2016-05-15T04:41:00.486Z,997.6
2016-05-15T04:42:00.521Z,997.56
2016-05-15T04:43:00.555Z,997.62
2016-05-15T04:44:00.588Z,997.5
2016-05-15T04:45:00.638Z,997.52
2016-05-15T04:46:00.656Z,997.72
2016-05-15T04:47:00.691Z,997.6
2016-05-15T04:48:00.724Z,997.63
2016-05-15T04:49:00.805Z,997.6
2016-05-15T04:50:00.793Z,997.56
2016-05-15T04:51:00.842Z,997.66
2016-05-15T04:52:00.891Z,997.61
2016-05-15T04:53:00.894Z,997.71
2016-05-15T04:54:00.943Z,997.81
2016-05-15T04:55:00.962Z,997.71
2016-05-15T04:56:01.012Z,997.73
2016-05-15T04:57:01.046Z,997.81
2016-05-15T04:58:01.079Z,997.79
2016-05-15T04:59:01.114Z,997.77
2016-05-15T05:00:01.147Z,997.79
2016-05-15T05:01:01.181Z,997.79
2016-05-15T05:02:01.215Z,997.75
2016-05-15T05:03:01.249Z,997.87
2016-05-15T05:04:01.862Z,997.74
2016-05-15T05:05:01.317Z,997.74
2016-05-15T05:06:01.366Z,997.87
2016-05-15T05:07:01.432Z,997.84
2016-05-15T05:08:01.419Z,997.82
2016-05-15T05:09:01.468Z,997.78
2016-05-15T05:10:01.503Z,997.86
2016-05-15T05:11:01.536Z,998.09
2016-05-15T05:12:01.570Z,997.78
2016-05-15T05:13:01.604Z,997.74
2016-05-15T05:14:01.638Z,997.81
2016-05-15T05:15:01.672Z,997.71
2016-05-15T05:16:01.705Z,997.79
2016-05-15T05:17:01.740Z,997.78
2016-05-15T05:18:01.805Z,997.86
2016-05-15T05:19:01.824Z,997.86
2016-05-15T05:20:01.841Z,997.9
2016-05-15T05:21:01.891Z,997.93
2016-05-15T05:22:01.926Z,997.85
2016-05-15T05:23:01.959Z,997.88
2016-05-15T05:24:01.993Z,998.05
2016-05-15T05:25:02.026Z,997.84
2016-05-15T05:26:02.062Z,997.88
2016-05-15T05:27:02.095Z,997.93
2016-05-15T05:28:02.128Z,997.95
2016-05-15T05:29:02.163Z,997.99
2016-05-15T05:30:02.212Z,997.95
2016-05-15T05:31:02.245Z,998.01
2016-05-15T05:32:02.280Z,998.04
2016-05-15T05:33:02.315Z,998
2016-05-15T05:34:02.348Z,998.07
2016-05-15T05:35:02.381Z,998.1
2016-05-15T05:36:02.432Z,998.11
2016-05-15T05:37:02.450Z,998.07
2016-05-15T05:38:02.483Z,998.1
2016-05-15T05:39:02.517Z,998.16
2016-05-15T05:40:02.552Z,998.1
2016-05-15T05:41:02.602Z,998.13
2016-05-15T05:42:02.635Z,998.14
2016-05-15T05:43:02.669Z,998.18
2016-05-15T05:44:02.719Z,998.19
2016-05-15T05:45:02.737Z,998.23
2016-05-15T05:46:02.771Z,998.33
2016-05-15T05:47:02.805Z,998.25
2016-05-15T05:48:02.886Z,998.25
2016-05-15T05:49:02.873Z,998.33
2016-05-15T05:50:02.907Z,998.39
2016-05-15T05:51:02.941Z,998.27
2016-05-15T05:52:02.990Z,998.35
2016-05-15T05:53:03.009Z,998.43
2016-05-15T05:54:03.058Z,998.35
2016-05-15T05:55:03.092Z,998.35
2016-05-15T05:56:03.110Z,998.49
2016-05-15T05:57:03.160Z,998.41
2016-05-15T05:58:03.193Z,998.42
2016-05-15T05:59:03.228Z,998.48
2016-05-15T06:00:03.261Z,998.38
2016-05-15T06:01:03.296Z,998.44
2016-05-15T06:02:03.345Z,998.48
2016-05-15T06:03:03.379Z,998.5
2016-05-15T06:04:03.414Z,998.54
2016-05-15T06:05:03.447Z,998.56
2016-05-15T06:06:03.465Z,998.52
2016-05-15T06:07:03.515Z,998.56
2016-05-15T06:08:03.611Z,998.54
2016-05-15T06:09:03.583Z,998.52
2016-05-15T06:10:03.647Z,998.52
2016-05-15T06:11:03.651Z,998.53
2016-05-15T06:12:03.685Z,998.55
2016-05-15T06:13:03.719Z,998.55
2016-05-15T06:14:03.768Z,998.53
2016-05-15T06:15:03.786Z,998.56
2016-05-15T06:16:03.821Z,998.56
2016-05-15T06:17:03.869Z,998.6
2016-05-15T06:18:03.889Z,998.59
2016-05-15T06:19:04.032Z,998.62
2016-05-15T06:20:03.971Z,998.63
2016-05-15T06:21:04.006Z,998.6
2016-05-15T06:22:04.040Z,998.61
2016-05-15T06:23:04.073Z,998.65
2016-05-15T06:24:04.107Z,998.69
2016-05-15T06:25:04.141Z,998.61
2016-05-15T06:26:04.176Z,998.66
2016-05-15T06:27:04.225Z,998.63
2016-05-15T06:28:04.243Z,998.64
2016-05-15T06:29:04.277Z,998.61
2016-05-15T06:30:04.326Z,998.65
2016-05-15T06:31:04.361Z,998.63
2016-05-15T06:32:04.395Z,998.67
2016-05-15T06:33:04.429Z,998.67
2016-05-15T06:34:04.462Z,998.66
2016-05-15T06:35:04.497Z,998.69
2016-05-15T06:36:04.578Z,998.64
2016-05-15T06:37:04.564Z,998.63
2016-05-15T06:38:04.614Z,998.67
2016-05-15T06:39:04.647Z,998.71
2016-05-15T06:40:04.682Z,998.69
2016-05-15T06:41:04.716Z,998.65
2016-05-15T06:42:04.749Z,998.8
2016-05-15T06:43:04.784Z,998.69
2016-05-15T06:44:04.817Z,998.73
2016-05-15T06:45:04.852Z,998.69
2016-05-15T06:46:04.901Z,998.75
2016-05-15T06:47:04.936Z,998.71
2016-05-15T06:48:04.969Z,998.73
2016-05-15T06:49:05.002Z,998.72
2016-05-15T06:50:05.038Z,998.71
2016-05-15T06:51:05.071Z,998.75
2016-05-15T06:52:05.104Z,998.73
2016-05-15T06:53:05.138Z,998.77
2016-05-15T06:54:05.173Z,998.86
2016-05-15T06:55:05.207Z,998.84
2016-05-15T06:56:05.240Z,998.79
2016-05-15T06:57:05.290Z,998.8
2016-05-15T06:58:05.340Z,998.76
2016-05-15T06:59:05.357Z,998.85
2016-05-15T07:00:05.392Z,998.84
2016-05-15T07:01:05.426Z,998.81
2016-05-15T07:02:05.460Z,998.81
2016-05-15T07:03:05.509Z,998.83
2016-05-15T07:04:05.637Z,998.81
2016-05-15T07:05:05.562Z,998.83
2016-05-15T07:06:05.595Z,998.86
2016-05-15T07:07:05.628Z,998.81
2016-05-15T07:08:05.679Z,998.96
2016-05-15T07:09:05.713Z,998.9
2016-05-15T07:10:05.747Z,998.85
2016-05-15T07:11:05.780Z,998.89
2016-05-15T07:12:05.815Z,998.91
2016-05-15T07:13:05.849Z,998.91
2016-05-15T07:14:05.882Z,998.97
2016-05-15T07:15:05.917Z,998.93
2016-05-15T07:16:05.950Z,998.94
2016-05-15T07:17:05.985Z,999.06
2016-05-15T07:18:06.019Z,999.1
2016-05-15T07:19:06.068Z,998.98
2016-05-15T07:20:06.118Z,998.97
2016-05-15T07:21:06.135Z,999
2016-05-15T07:22:06.169Z,999.05
2016-05-15T07:23:06.204Z,998.97
2016-05-15T07:24:06.254Z,999.03
2016-05-15T07:25:06.271Z,999.05
2016-05-15T07:26:06.305Z,999.09
2016-05-15T07:27:06.340Z,999.07
2016-05-15T07:28:06.389Z,999.11
2016-05-15T07:29:06.423Z,999.18
2016-05-15T07:30:06.457Z,999.14
2016-05-15T07:31:06.491Z,999.11
2016-05-15T07:32:06.525Z,999.25
2016-05-15T07:33:06.559Z,999.14
2016-05-15T07:34:06.593Z,999.21
2016-05-15T07:35:06.642Z,999.2
2016-05-15T07:36:06.660Z,999.19
2016-05-15T07:37:06.695Z,999.24
2016-05-15T07:38:06.744Z,999.28
2016-05-15T07:39:06.798Z,999.18
2016-05-15T07:40:06.875Z,999.24
2016-05-15T07:41:06.953Z,999.23
2016-05-15T07:42:07.030Z,999.25
2016-05-15T07:43:07.107Z,999.27
2016-05-15T07:44:07.172Z,999.24
2016-05-15T07:45:07.237Z,999.24
2016-05-15T07:46:07.319Z,999.21
2016-05-15T07:47:07.337Z,999.3
2016-05-15T07:48:07.386Z,999.25
2016-05-15T07:49:07.431Z,999.31
2016-05-15T07:50:07.486Z,999.26
2016-05-15T07:51:07.525Z,999.33
2016-05-15T07:52:07.564Z,999.32
2016-05-15T07:53:07.636Z,999.36
2016-05-15T07:54:07.642Z,999.37
2016-05-15T07:55:07.677Z,999.41
2016-05-15T07:56:07.713Z,999.37
2016-05-15T07:57:07.749Z,999.35
2016-05-15T07:58:07.801Z,999.37
2016-05-15T07:59:07.836Z,999.41
2016-05-15T08:00:07.871Z,999.41
2016-05-15T08:01:07.905Z,999.46
2016-05-15T08:02:07.940Z,999.43
2016-05-15T08:03:07.975Z,999.45
2016-05-15T08:04:08.040Z,999.49
2016-05-15T08:05:08.043Z,999.47
2016-05-15T08:06:08.093Z,999.46
2016-05-15T08:07:08.128Z,999.46
2016-05-15T08:08:08.163Z,999.45
2016-05-15T08:09:08.196Z,999.42
2016-05-15T08:10:08.231Z,999.45
2016-05-15T08:11:08.296Z,999.53
2016-05-15T08:12:08.298Z,999.52
2016-05-15T08:13:08.332Z,999.5
2016-05-15T08:14:08.382Z,999.52
2016-05-15T08:15:08.400Z,999.53
2016-05-15T08:16:08.449Z,999.53
2016-05-15T08:17:08.484Z,999.57
2016-05-15T08:18:08.518Z,999.54
2016-05-15T08:19:08.551Z,999.54
2016-05-15T08:20:08.585Z,999.55
2016-05-15T08:21:08.620Z,999.59
2016-05-15T08:22:08.732Z,999.59
2016-05-15T08:23:08.687Z,999.53
2016-05-15T08:24:08.737Z,999.52
2016-05-15T08:25:08.771Z,999.53
2016-05-15T08:26:08.804Z,999.52
2016-05-15T08:27:08.839Z,999.66
2016-05-15T08:28:08.888Z,999.58
2016-05-15T08:29:08.923Z,999.63
2016-05-15T08:30:08.956Z,999.71
2016-05-15T08:31:08.989Z,999.68
2016-05-15T08:32:09.024Z,999.69
2016-05-15T08:33:09.058Z,999.63
2016-05-15T08:34:09.623Z,999.65
2016-05-15T08:35:09.125Z,999.64
2016-05-15T08:36:09.176Z,999.59
2016-05-15T08:37:09.241Z,999.7
2016-05-15T08:38:09.243Z,999.65
2016-05-15T08:39:09.278Z,999.72
2016-05-15T08:40:09.311Z,999.77
2016-05-15T08:41:09.344Z,999.73
2016-05-15T08:42:09.394Z,999.69
2016-05-15T08:43:09.444Z,999.72
2016-05-15T08:44:09.463Z,999.67
2016-05-15T08:45:09.496Z,999.71
2016-05-15T08:46:09.530Z,999.79
2016-05-15T08:47:09.565Z,999.68
2016-05-15T08:48:09.645Z,999.73
2016-05-15T08:49:09.929Z,999.72
2016-05-15T08:50:09.682Z,999.77
2016-05-15T08:51:09.716Z,999.72
2016-05-15T08:52:09.749Z,999.75
2016-05-15T08:53:09.784Z,999.87
2016-05-15T08:54:09.833Z,999.73
2016-05-15T08:55:09.898Z,999.77
2016-05-15T08:56:09.901Z,999.8
2016-05-15T08:57:09.935Z,999.68
2016-05-15T08:58:09.969Z,999.75
2016-05-15T08:59:10.018Z,999.79
2016-05-15T09:00:10.053Z,999.78
2016-05-15T09:01:10.086Z,999.91
2016-05-15T09:02:10.136Z,999.8
2016-05-15T09:03:10.154Z,999.83
2016-05-15T09:04:10.188Z,999.78
2016-05-15T09:05:10.239Z,999.84
2016-05-15T09:06:10.303Z,999.87
2016-05-15T09:07:10.321Z,999.9
2016-05-15T09:08:10.339Z,999.94
2016-05-15T09:09:10.388Z,999.88
2016-05-15T09:10:10.422Z,999.96
2016-05-15T09:11:10.458Z,999.9
2016-05-15T09:12:10.491Z,999.88
2016-05-15T09:13:10.524Z,999.93
2016-05-15T09:14:10.575Z,999.92
2016-05-15T09:15:10.608Z,999.93
2016-05-15T09:16:10.642Z,1000.01
2016-05-15T09:17:10.676Z,999.91
2016-05-15T09:18:10.727Z,1000
2016-05-15T09:19:10.760Z,999.93
2016-05-15T09:20:10.793Z,1000.03
2016-05-15T09:21:10.843Z,999.93
2016-05-15T09:22:10.861Z,999.91
2016-05-15T09:23:10.912Z,1000
2016-05-15T09:24:10.945Z,999.94
2016-05-15T09:25:10.979Z,999.99
2016-05-15T09:26:11.013Z,1000.15
2016-05-15T09:27:11.047Z,1000.08
2016-05-15T09:28:11.096Z,1000.08
2016-05-15T09:29:11.131Z,1000.09
2016-05-15T09:30:11.164Z,1000.05
2016-05-15T09:31:11.198Z,1000.08
2016-05-15T09:32:11.248Z,1000.16
2016-05-15T09:33:11.281Z,1000.06
2016-05-15T09:34:11.316Z,1000.13
2016-05-15T09:35:11.350Z,1000.12
2016-05-15T09:36:11.383Z,1000.12
2016-05-15T09:37:11.417Z,1000.15
2016-05-15T09:38:11.452Z,1000.18
2016-05-15T09:39:11.533Z,1000.18
2016-05-15T09:40:11.535Z,1000.2
2016-05-15T09:41:11.569Z,1000.25
2016-05-15T09:42:11.603Z,1000.16
2016-05-15T09:43:11.652Z,1000.2
2016-05-15T09:44:11.686Z,1000.24
2016-05-15T09:45:11.720Z,1000.25
2016-05-15T09:46:11.755Z,1000.25
2016-05-15T09:47:11.788Z,1000.16
2016-05-15T09:48:11.822Z,1000.16
2016-05-15T09:49:11.871Z,1000.18
2016-05-15T09:50:11.921Z,1000.21
2016-05-15T09:51:11.940Z,1000.26
2016-05-15T09:52:11.974Z,1000.33
2016-05-15T09:53:12.007Z,1000.24
2016-05-15T09:54:12.057Z,1000.3
2016-05-15T09:55:12.090Z,1000.38
2016-05-15T09:56:12.125Z,1000.38
2016-05-15T09:57:12.159Z,1000.36
2016-05-15T09:58:12.192Z,1000.18
2016-05-15T09:59:12.243Z,1000.33
2016-05-15T10:00:12.276Z,1000.31
2016-05-15T10:01:12.310Z,1000.32
2016-05-15T10:02:12.344Z,1000.3
2016-05-15T10:03:12.394Z,1000.33
2016-05-15T10:04:12.428Z,1000.41
2016-05-15T10:05:12.477Z,1000.4
2016-05-15T10:06:12.495Z,1000.36
2016-05-15T10:07:12.530Z,1000.38
2016-05-15T10:08:12.579Z,1000.41
2016-05-15T10:09:12.613Z,1000.35
2016-05-15T10:10:12.646Z,1000.43
2016-05-15T10:11:12.696Z,1000.38
2016-05-15T10:12:12.731Z,1000.4
2016-05-15T10:13:12.764Z,1000.36
2016-05-15T10:14:12.798Z,1000.43
2016-05-15T10:15:12.848Z,1000.42
2016-05-15T10:16:12.897Z,1000.44
2016-05-15T10:17:12.916Z,1000.48
2016-05-15T10:18:12.965Z,1000.45
2016-05-15T10:19:13.000Z,1000.38
2016-05-15T10:20:13.033Z,1000.51
2016-05-15T10:21:13.083Z,1000.47
2016-05-15T10:22:13.101Z,1000.44
2016-05-15T10:23:13.150Z,1000.44
2016-05-15T10:24:13.185Z,1000.49
2016-05-15T10:25:13.234Z,1000.46
2016-05-15T10:26:13.268Z,1000.4
2016-05-15T10:27:13.301Z,1000.56
2016-05-15T10:28:13.351Z,1000.41
2016-05-15T10:29:13.385Z,1000.5
2016-05-15T10:30:13.420Z,1000.48
2016-05-15T10:31:13.515Z,1000.47
2016-05-15T10:32:13.503Z,1000.41
2016-05-15T10:33:13.537Z,1000.42
2016-05-15T10:34:13.571Z,1000.48
2016-05-15T10:35:13.761Z,1000.41
2016-05-15T10:36:13.653Z,1000.42
2016-05-15T10:37:13.689Z,1000.38
2016-05-15T10:38:13.723Z,1000.45
2016-05-15T10:39:13.756Z,1000.42
2016-05-15T10:40:13.805Z,1000.32
2016-05-15T10:41:13.840Z,1000.37
2016-05-15T10:42:13.889Z,1000.38
2016-05-15T10:43:13.923Z,1000.4
2016-05-15T10:44:13.957Z,1000.4
2016-05-15T10:45:13.991Z,1000.36
2016-05-15T10:46:14.025Z,1000.4
2016-05-15T10:47:14.075Z,1000.32
2016-05-15T10:48:14.108Z,1000.34
2016-05-15T10:49:14.143Z,1000.37
2016-05-15T10:50:14.504Z,1000.5
2016-05-15T10:51:14.227Z,1000.31
2016-05-15T10:52:14.260Z,1000.37
2016-05-15T10:53:14.324Z,1000.32
2016-05-15T10:54:14.343Z,1000.44
2016-05-15T10:55:14.376Z,1000.6
2016-05-15T10:56:14.427Z,1000.36
2016-05-15T10:57:14.460Z,1000.42
2016-05-15T10:58:14.510Z,1000.55
2016-05-15T10:59:14.544Z,1000.58
2016-05-15T11:00:14.594Z,1000.32
2016-05-15T11:01:14.628Z,1000.35
2016-05-15T11:02:14.678Z,1000.27
2016-05-15T11:03:14.711Z,1000.26
2016-05-15T11:04:14.762Z,1000.51
2016-05-15T11:05:15.231Z,1000.58
2016-05-15T11:06:14.845Z,1000.55
2016-05-15T11:07:14.894Z,1000.54
2016-05-15T11:08:14.928Z,1000.42
2016-05-15T11:09:14.977Z,1000.69
2016-05-15T11:10:15.028Z,1000.55
2016-05-15T11:11:15.092Z,1000.6
2016-05-15T11:12:15.111Z,1000.47
2016-05-15T11:13:15.160Z,1000.47
2016-05-15T11:14:15.210Z,1000.55
2016-05-15T11:15:15.258Z,1000.49
2016-05-15T11:16:15.309Z,1000.15
2016-05-15T11:17:15.343Z,1000.04
2016-05-15T11:18:15.392Z,1000.04
2016-05-15T11:19:15.457Z,1000.61
2016-05-15T11:20:15.491Z,1000.01
2016-05-15T11:21:15.541Z,1000.08
2016-05-15T11:22:15.590Z,1000.39
2016-05-15T11:23:15.640Z,1000.52
2016-05-15T11:24:15.705Z,1000.49
2016-05-15T11:25:15.739Z,1000.64
2016-05-15T11:26:15.773Z,1000.64
2016-05-15T11:27:25.088Z,1000.32
2016-05-15T11:28:15.872Z,1000.25
2016-05-15T11:29:15.921Z,1000.11
2016-05-15T11:30:15.971Z,1000.02
2016-05-15T11:31:16.021Z,1000.26
2016-05-15T11:32:16.117Z,1000.02
2016-05-15T11:33:16.104Z,1000.14
2016-05-15T11:34:16.170Z,1000.42
2016-05-15T11:35:16.360Z,999.94
2016-05-15T11:36:16.253Z,999.91
2016-05-15T11:37:16.303Z,1000.01
2016-05-15T11:38:16.352Z,999.99
2016-05-15T11:39:16.402Z,999.83
2016-05-15T11:40:16.451Z,999.88
2016-05-15T11:41:16.501Z,1000.5
2016-05-15T11:42:16.550Z,1000.65
2016-05-15T11:43:16.584Z,1000.63
2016-05-15T11:44:16.633Z,1000.11
2016-05-15T11:45:16.684Z,999.99
2016-05-15T11:46:16.764Z,999.74
2016-05-15T11:47:16.783Z,999.78
2016-05-15T11:48:16.832Z,999.73
2016-05-15T11:49:16.866Z,999.73
2016-05-15T11:50:16.931Z,999.82
2016-05-15T11:51:16.966Z,999.72
2016-05-15T11:52:17.015Z,999.87
2016-05-15T11:53:17.096Z,999.91
2016-05-15T11:54:17.207Z,999.76
2016-05-15T11:55:17.148Z,999.78
2016-05-15T11:56:17.290Z,999.82
2016-05-15T11:57:17.232Z,999.86
2016-05-15T11:58:17.282Z,999.84
2016-05-15T11:59:17.331Z,999.76
2016-05-15T12:00:17.379Z,999.81
2016-05-15T12:01:17.414Z,999.75
2016-05-15T12:02:17.464Z,1000.73
2016-05-15T12:03:17.498Z,1000.64
2016-05-15T12:04:17.548Z,1000.59
2016-05-15T12:05:17.581Z,1000.63
2016-05-15T12:06:17.631Z,1000.64
2016-05-15T12:07:17.680Z,1000.56
2016-05-15T12:08:17.730Z,1000.69
2016-05-15T12:09:17.764Z,1000.74
2016-05-15T12:10:17.814Z,999.92
2016-05-15T12:11:17.863Z,1000.01
2016-05-15T12:12:17.912Z,1000.12
2016-05-15T12:13:17.962Z,1000.16
2016-05-15T12:14:18.012Z,1000.22
2016-05-15T12:15:18.061Z,1000.21
2016-05-15T12:16:18.095Z,1000.35
2016-05-15T12:17:18.144Z,1000.13
2016-05-15T12:18:18.194Z,1000.25
2016-05-15T12:19:18.243Z,1000.22
2016-05-15T12:20:18.293Z,1000.24
2016-05-15T12:21:18.328Z,1000.27
2016-05-15T12:22:18.377Z,1000.19
2016-05-15T12:23:18.427Z,1000.25
2016-05-15T12:24:18.460Z,1000.4
2016-05-15T12:25:18.510Z,1000.4
2016-05-15T12:26:18.559Z,1000.37